RJOI/IWA METAR and TAF weather

Enter ICAO airport designator
Station Type Date Time Source
RJOI METAR 2019/08/25 02:55 UTC NOAA

RJOI 250255Z 18006KT 9999 FEW025 BKN090 BKN140 26/21 A2993 RMK SHRAB39E51 SLP134 P0000 60000 T02560211 50000


Station Type Date Time Source
RJOI Decoded METAR 2019/08/25 02:55 UTC NOAA

Station name not available
Aug 24, 2019 - 10:55 PM EDT / 2019.08.25 0255 UTC
Wind: from the S (180 degrees) at 7 MPH (6 KT):0
Visibility: greater than 7 mile(s):0
Sky conditions: mostly cloudy
Precipitation last hour: A trace
Temperature: 78.1 F (25.6 C)
Dew Point: 70.0 F (21.1 C)
Relative Humidity: 76%
Pressure (altimeter): 29.93 in. Hg (1013 hPa)
Pressure tendency: 0.00 inches (0.0 hPa) higher than three hours ago
ob: RJOI 250255Z 18006KT 9999 FEW025 BKN090 BKN140 26/21 A2993 RMK SHRAB39E51 SLP134 P0000 60000 T02560211 50000
cycle: 3

Station Type Date Time Source
RJOI TAF 2019/08/24 21:07 UTC NOAA

TAF RJOI 2421/2521 VRB05KT 9999 SCT030 BKN100 BKN160 621654 QNH2986INS
BECMG 2503/2504 20008KT 9999 SCT030 BKN100 BKN210 621654 QNH2988INS
FM251230 33006KT 9999 FEW025 BKN100 600000 QNH2989INS T28/2504Z T21/2520Z

Example: see airport list